Time;durP1;ratioP1;P1;durP2;ratioP2;P2;SDS_P1;SDS_P2;PMS_P1;PMS_P2;Temp;Humidity;BMP_temperature;BMP_pressure;BME280_temperature;BME280_humidity;BME280_pressure;Samples;Min_cycle;Max_cycle;Signal;HPM_P1;HPM_P2
2022/08/13 00:00:52;;;;;;;6.57;5.80;;;;;;;18.39;63.22;101744.25;5094891;28;20072;-74
2022/08/13 00:03:18;;;;;;;11.38;5.82;;;;;;;18.36;62.79;101744.44;5093391;28;20083;-74
2022/08/13 00:06:08;;;;;;;12.80;6.88;;;;;;;18.30;63.27;101741.66;5094238;28;20080;-74
2022/08/13 00:08:48;;;;;;;5.93;5.32;;;;;;;18.26;63.27;101746.50;5094985;28;20051;-73
2022/08/13 00:12:56;;;;;;;7.63;5.85;;;;;;;18.23;63.34;101744.75;5094470;28;20044;-74
2022/08/13 00:14:25;;;;;;;10.35;5.75;;;;;;;18.17;63.86;101743.91;5094436;28;20098;-73
2022/08/13 00:17:07;;;;;;;6.82;4.88;;;;;;;18.13;63.54;101744.09;5094658;28;20497;-74
2022/08/13 00:19:38;;;;;;;11.95;5.43;;;;;;;18.09;64.00;101742.81;5092354;28;20036;-74
2022/08/13 00:22:06;;;;;;;9.95;5.50;;;;;;;18.06;64.45;101735.66;5092799;28;20053;-73
2022/08/13 00:24:53;;;;;;;7.68;5.53;;;;;;;18.00;64.14;101739.00;5094516;28;20064;-74
2022/08/13 00:27:22;;;;;;;10.00;5.60;;;;;;;17.98;64.21;101743.41;5094568;28;20048;-73
2022/08/13 00:29:56;;;;;;;8.18;5.90;;;;;;;17.92;64.22;101743.31;5094026;28;20489;-73
2022/08/13 00:32:29;;;;;;;7.97;5.78;;;;;;;17.85;64.50;101745.63;5094345;28;20091;-74
2022/08/13 00:35:02;;;;;;;7.22;5.45;;;;;;;17.82;63.75;101744.59;5092427;27;20041;-74
2022/08/13 00:37:37;;;;;;;8.35;5.75;;;;;;;17.76;63.53;101740.34;5094209;28;20040;-74
2022/08/13 00:40:19;;;;;;;13.50;5.80;;;;;;;17.72;63.59;101737.81;5092635;28;20045;-73
2022/08/13 00:43:03;;;;;;;8.02;5.60;;;;;;;17.69;63.37;101736.06;5094237;28;20044;-74
2022/08/13 00:45:32;;;;;;;5.85;5.35;;;;;;;17.66;64.17;101735.03;5092587;28;20044;-74
2022/08/13 00:50:50;;;;;;;6.57;5.88;;;;;;;17.57;65.76;101743.19;5094192;28;20045;-73
2022/08/13 00:53:18;;;;;;;8.02;6.00;;;;;;;17.51;65.95;101741.63;5092678;28;20134;-74
2022/08/13 00:55:50;;;;;;;10.15;5.70;;;;;;;17.49;65.01;101741.34;5094280;28;20049;-74
2022/08/13 00:58:21;;;;;;;8.23;5.32;;;;;;;17.49;64.69;101744.78;5094047;28;20044;-74
2022/08/13 01:00:57;;;;;;;7.03;5.60;;;;;;;17.41;65.65;101749.03;5094110;28;20044;-74
2022/08/13 01:03:29;;;;;;;10.77;5.57;;;;;;;17.38;64.77;101741.13;5091793;28;20057;-73
2022/08/13 01:06:18;;;;;;;6.72;5.65;;;;;;;17.32;64.76;101739.06;5078376;28;20052;-73
2022/08/13 01:08:48;;;;;;;11.60;6.00;;;;;;;17.30;64.93;101744.19;5086962;28;20510;-73
2022/08/13 01:11:22;;;;;;;8.85;5.65;;;;;;;17.27;65.47;101747.03;5091901;28;20118;-73
2022/08/13 01:13:51;;;;;;;8.85;5.85;;;;;;;17.23;65.22;101751.84;5092229;28;20417;-74
2022/08/13 01:16:19;;;;;;;7.95;5.68;;;;;;;17.20;65.43;101744.72;5093650;28;20126;-73
2022/08/13 01:18:51;;;;;;;9.67;5.10;;;;;;;17.17;66.20;101749.09;5092680;28;20044;-74
2022/08/13 01:21:22;;;;;;;11.63;6.03;;;;;;;17.13;66.43;101753.16;5092570;28;20266;-74
2022/08/13 01:24:09;;;;;;;8.75;5.53;;;;;;;17.07;66.50;101746.91;5093094;28;20048;-73
2022/08/13 01:26:39;;;;;;;11.50;6.05;;;;;;;17.05;67.02;101743.94;5093496;28;20048;-74
2022/08/13 01:29:16;;;;;;;6.40;5.35;;;;;;;17.01;66.53;101752.19;5093497;28;20162;-73
2022/08/13 01:31:44;;;;;;;11.27;6.35;;;;;;;16.98;67.30;101748.47;5092529;28;20040;-74
2022/08/13 01:34:12;;;;;;;8.70;5.55;;;;;;;16.97;67.70;101744.28;5091685;28;20132;-74
2022/08/13 01:36:53;;;;;;;12.80;5.60;;;;;;;16.91;67.46;101753.44;5093139;28;20491;-74
2022/08/13 01:39:27;;;;;;;5.93;5.35;;;;;;;16.89;67.45;101743.16;5092985;28;20421;-74
2022/08/13 01:42:02;;;;;;;5.47;5.03;;;;;;;16.86;67.16;101740.63;5093308;28;20102;-74
2022/08/13 01:44:31;;;;;;;8.60;5.53;;;;;;;16.80;67.36;101743.19;5092935;28;20094;-73
2022/08/13 01:53:01;;;;;;;7.40;5.93;;;;;;;16.64;67.04;101744.38;5092978;28;20045;-74
2022/08/13 01:55:48;;;;;;;5.82;5.03;;;;;;;16.59;65.52;101749.59;5093120;28;20559;-74
2022/08/13 01:58:35;;;;;;;5.82;5.43;;;;;;;16.58;65.74;101746.16;5092966;28;20049;-74
2022/08/13 02:01:25;;;;;;;5.72;5.38;;;;;;;16.53;65.92;101751.41;5092431;28;20545;-74
2022/08/13 02:04:11;;;;;;;7.43;5.63;;;;;;;16.49;66.21;101751.56;5092394;28;20571;-74
2022/08/13 02:06:39;;;;;;;5.88;5.40;;;;;;;16.44;66.59;101748.75;5074555;28;20044;-74
2022/08/13 02:09:09;;;;;;;9.23;5.30;;;;;;;16.38;66.24;101748.66;5092834;28;20119;-74
2022/08/13 02:11:55;;;;;;;5.63;5.22;;;;;;;16.36;67.08;101750.31;5091422;28;20336;-75
2022/08/13 02:14:27;;;;;;;6.80;5.10;;;;;;;16.34;67.52;101746.13;5092598;28;20045;-75
2022/08/13 02:16:53;;;;;;;9.95;5.57;;;;;;;16.31;67.64;101747.03;5092084;28;20053;-74
2022/08/13 02:19:20;;;;;;;7.45;5.57;;;;;;;16.29;67.60;101751.38;5092847;28;20041;-74
2022/08/13 02:21:57;;;;;;;5.88;5.47;;;;;;;16.26;67.87;101749.59;5091694;28;20540;-74
2022/08/13 02:24:28;;;;;;;6.97;5.53;;;;;;;16.21;68.28;101752.91;5090894;28;20048;-74
2022/08/13 02:26:57;;;;;;;5.97;5.57;;;;;;;16.18;68.59;101743.06;5092413;28;20102;-74
2022/08/13 02:29:25;;;;;;;6.18;5.65;;;;;;;16.16;68.76;101742.78;5091865;28;20075;-74
2022/08/13 02:31:52;;;;;;;5.70;5.18;;;;;;;16.10;68.72;101747.25;5091006;28;20044;-74
2022/08/13 02:34:39;;;;;;;7.00;5.60;;;;;;;16.06;68.51;101749.38;5090781;28;20139;-74
2022/08/13 02:37:10;;;;;;;5.82;5.43;;;;;;;16.05;68.86;101753.25;5092166;28;20041;-75
2022/08/13 02:39:56;;;;;;;6.40;5.78;;;;;;;16.01;68.98;101742.66;5091028;28;20151;-75
2022/08/13 02:42:23;;;;;;;6.47;5.57;;;;;;;15.98;68.75;101743.59;5092430;28;20090;-75
2022/08/13 02:44:50;;;;;;;6.55;5.40;;;;;;;15.96;69.11;101743.31;5091633;28;20040;-75
2022/08/13 02:47:19;;;;;;;6.47;5.32;;;;;;;15.90;69.05;101743.16;5091323;28;20052;-75
2022/08/13 02:50:07;;;;;;;6.25;5.65;;;;;;;15.83;68.81;101748.09;5092448;28;20076;-75
2022/08/13 02:52:36;;;;;;;5.80;5.28;;;;;;;15.81;68.45;101755.88;5074266;28;20049;-75
2022/08/13 02:55:16;;;;;;;5.95;5.45;;;;;;;15.76;68.47;101746.47;5092611;28;20036;-75
2022/08/13 02:57:42;;;;;;;6.20;5.60;;;;;;;15.76;68.50;101748.41;5092139;28;20501;-75
2022/08/13 03:00:14;;;;;;;9.70;5.63;;;;;;;15.75;68.82;101754.97;5090576;28;20102;-74
2022/08/13 03:02:44;;;;;;;6.28;5.60;;;;;;;15.74;69.44;101753.47;5092506;28;20045;-75
2022/08/13 03:05:19;;;;;;;5.80;5.22;;;;;;;15.71;69.21;101751.69;5095412;28;20056;-75
2022/08/13 03:07:48;;;;;;;9.40;5.60;;;;;;;15.66;69.92;101751.09;5096036;28;20072;-74
2022/08/13 03:10:22;;;;;;;6.90;5.47;;;;;;;15.62;70.42;101749.78;5095676;28;20484;-74
2022/08/13 03:13:19;;;;;;;6.13;5.07;;;;;;;15.60;70.07;101752.16;5094765;28;20094;-74
2022/08/13 03:15:52;;;;;;;6.32;5.72;;;;;;;15.55;70.10;101758.13;5095758;28;20171;-74
2022/08/13 03:18:29;;;;;;;6.03;5.40;;;;;;;15.51;69.68;101758.28;5094258;28;20128;-74
2022/08/13 03:21:18;;;;;;;6.57;5.80;;;;;;;15.48;69.59;101750.38;5094512;28;20075;-74
2022/08/13 03:24:07;;;;;;;5.93;5.43;;;;;;;15.47;68.92;101755.00;5095317;28;20126;-74
2022/08/13 03:26:34;;;;;;;7.90;5.45;;;;;;;15.43;69.11;101754.41;5095084;28;20041;-74
2022/08/13 03:29:04;;;;;;;5.90;5.03;;;;;;;15.40;69.10;101757.97;5093373;28;20738;-74
2022/08/13 03:31:34;;;;;;;8.70;6.75;;;;;;;15.40;69.77;101757.97;5095357;28;20040;-74
2022/08/13 03:34:20;;;;;;;8.23;5.53;;;;;;;15.33;69.54;101760.94;5093933;28;20049;-74
2022/08/13 03:36:48;;;;;;;6.63;5.88;;;;;;;15.28;69.82;101764.97;5095498;28;20052;-74
2022/08/13 03:39:16;;;;;;;8.68;5.78;;;;;;;15.25;69.61;101757.81;5095128;28;20055;-74
2022/08/13 03:41:43;;;;;;;6.40;6.00;;;;;;;15.22;69.69;101760.66;5093408;28;20083;-74
2022/08/13 03:44:18;;;;;;;9.00;5.80;;;;;;;15.20;69.61;101754.97;5095231;28;20063;-74
2022/08/13 03:46:54;;;;;;;5.70;5.32;;;;;;;15.19;69.60;101759.63;5095001;28;20089;-74
2022/08/13 03:49:20;;;;;;;7.30;5.75;;;;;;;15.19;69.84;101761.56;5094728;28;20041;-74
2022/08/13 03:51:49;;;;;;;8.27;6.03;;;;;;;15.17;70.27;101761.25;5094396;28;20048;-74
2022/08/13 03:54:16;;;;;;;6.30;5.68;;;;;;;15.13;70.13;101760.66;5095186;28;20044;-74
2022/08/13 03:56:44;;;;;;;9.48;5.70;;;;;;;15.09;70.47;101760.81;5094306;28;20044;-74
2022/08/13 03:59:22;;;;;;;5.47;5.07;;;;;;;15.07;70.03;101751.72;5094831;28;20064;-74
2022/08/13 04:01:54;;;;;;;6.25;5.68;;;;;;;15.07;71.18;101757.06;5094751;28;20044;-74
2022/08/13 04:04:22;;;;;;;9.52;6.10;;;;;;;15.05;70.63;101754.09;5093818;28;20470;-74
2022/08/13 04:06:48;;;;;;;12.07;5.55;;;;;;;15.02;71.10;101753.03;5093654;28;20036;-74
2022/08/13 04:09:16;;;;;;;5.22;4.70;;;;;;;15.02;70.79;101761.09;5094909;28;20041;-74
2022/08/13 04:11:42;;;;;;;6.75;5.53;;;;;;;15.00;71.12;101756.16;5093908;28;20051;-74
2022/08/13 04:14:09;;;;;;;6.78;5.63;;;;;;;14.98;71.08;101757.81;5093774;28;20086;-74
2022/08/13 04:16:56;;;;;;;5.80;5.30;;;;;;;14.98;70.78;101755.13;5094105;28;20076;-74
2022/08/13 04:19:26;;;;;;;5.72;5.32;;;;;;;14.96;71.74;101754.81;5093822;28;20045;-74
2022/08/13 04:21:52;;;;;;;6.68;5.53;;;;;;;14.93;72.22;101753.03;5093817;28;20137;-74
2022/08/13 04:24:19;;;;;;;6.82;5.55;;;;;;;14.88;71.86;101751.69;5094166;28;20048;-74
2022/08/13 04:26:47;;;;;;;8.52;5.72;;;;;;;14.86;72.14;101751.38;5092479;28;20106;-74
2022/08/13 04:29:14;;;;;;;13.30;5.60;;;;;;;14.86;72.82;101753.31;5094221;28;20470;-74
2022/08/13 04:31:46;;;;;;;5.28;4.97;;;;;;;14.85;72.34;101747.19;5094816;28;20484;-74
2022/08/13 04:34:19;;;;;;;6.57;5.28;;;;;;;14.82;72.54;101750.78;5094722;28;20049;-74
2022/08/13 04:37:10;;;;;;;6.93;5.45;;;;;;;14.81;72.37;101749.28;5094259;28;20132;-74
2022/08/13 04:39:47;;;;;;;6.00;5.50;;;;;;;14.80;72.33;101750.47;5093903;28;20041;-74
2022/08/13 04:42:48;;;;;;;6.10;5.60;;;;;;;14.84;72.06;101756.44;5094170;28;20069;-74
2022/08/13 04:45:17;;;;;;;6.97;5.07;;;;;;;14.83;72.56;101752.25;5094443;28;20405;-74
2022/08/13 04:47:49;;;;;;;5.68;5.20;;;;;;;14.83;72.36;101757.63;5094165;28;20055;-74
2022/08/13 04:50:16;;;;;;;9.02;5.72;;;;;;;14.86;72.31;101764.03;5093778;28;20044;-74
2022/08/13 04:52:45;;;;;;;6.25;5.45;;;;;;;14.86;72.16;101756.75;5093607;28;20095;-74
2022/08/13 04:55:15;;;;;;;5.82;5.32;;;;;;;14.88;72.02;101761.66;5093826;28;20086;-74
2022/08/13 04:57:41;;;;;;;5.60;5.20;;;;;;;14.89;72.24;101757.78;5093802;28;20052;-74
2022/08/13 05:00:24;;;;;;;5.90;5.35;;;;;;;14.93;71.92;101767.19;5092756;28;20072;-74
2022/08/13 05:02:54;;;;;;;7.97;6.03;;;;;;;14.93;72.52;101769.84;5091698;28;20048;-74
2022/08/13 05:05:24;;;;;;;9.52;5.63;;;;;;;14.96;71.98;101777.00;5093897;28;20040;-74
2022/08/13 05:07:52;;;;;;;5.97;5.22;;;;;;;15.02;71.04;101774.50;5093411;28;20516;-74
2022/08/13 05:10:20;;;;;;;7.65;5.30;;;;;;;15.06;71.83;101777.03;5092014;28;20049;-74
2022/08/13 05:13:03;;;;;;;6.50;5.00;;;;;;;15.12;71.98;101775.25;5093456;28;20041;-74
2022/08/13 05:15:36;;;;;;;7.55;5.30;;;;;;;15.19;71.80;101772.28;5093482;28;20040;-74
2022/08/13 05:18:18;;;;;;;12.02;5.03;;;;;;;16.01;71.06;101762.22;5093554;28;20491;-74
2022/08/13 05:20:54;;;;;;;5.78;5.18;;;;;;;18.62;62.32;101773.00;5091879;28;20099;-74
2022/08/13 05:23:23;;;;;;;5.65;5.18;;;;;;;20.61;55.21;101771.91;5093046;28;20036;-74
2022/08/13 05:26:10;;;;;;;6.47;5.13;;;;;;;22.11;50.49;101778.13;5076807;28;20548;-74
2022/08/13 05:29:05;;;;;;;5.22;4.80;;;;;;;23.40;48.39;101781.09;5093380;28;20080;-74
2022/08/13 05:31:35;;;;;;;6.40;4.95;;;;;;;24.29;45.26;101776.94;5091608;28;20041;-74
2022/08/13 05:34:24;;;;;;;7.55;4.80;;;;;;;25.02;43.49;101771.38;5093422;28;20048;-74
2022/08/13 05:36:52;;;;;;;6.18;5.28;;;;;;;25.58;41.13;101779.47;5091574;27;20476;-74
2022/08/13 05:39:40;;;;;;;5.82;5.18;;;;;;;26.16;39.38;101774.03;5092697;28;20460;-75
2022/08/13 05:42:13;;;;;;;5.28;4.68;;;;;;;26.69;39.04;101774.00;5091388;28;20087;-74
2022/08/13 05:44:42;;;;;;;5.05;4.65;;;;;;;26.81;38.31;101777.97;5092738;28;20538;-74
2022/08/13 05:47:09;;;;;;;6.40;5.43;;;;;;;27.19;37.95;101781.13;5092598;28;20048;-74
2022/08/13 05:49:41;;;;;;;5.75;4.97;;;;;;;27.37;37.33;101771.28;5093024;28;20037;-74
2022/08/13 05:52:25;;;;;;;8.18;5.25;;;;;;;27.84;36.19;101781.34;5092601;28;20045;-72
2022/08/13 05:55:13;;;;;;;9.98;4.88;;;;;;;28.02;35.11;101780.38;5093050;28;20115;-77
2022/08/13 05:57:59;;;;;;;7.45;4.97;;;;;;;27.99;35.02;101773.22;5091198;28;20213;-77
2022/08/13 06:03:31;;;;;;;6.00;4.47;;;;;;;28.08;34.50;101777.47;5092199;28;20102;-75
2022/08/13 06:06:20;;;;;;;5.60;4.20;;;;;;;28.11;34.09;101779.88;5093085;28;20053;-74
2022/08/13 06:08:56;;;;;;;9.13;4.20;;;;;;;28.23;33.63;101788.56;5092331;28;20068;-74
2022/08/13 06:11:24;;;;;;;10.13;4.28;;;;;;;28.18;32.53;101778.47;5090757;28;20045;-74
2022/08/13 06:14:20;;;;;;;4.80;4.50;;;;;;;27.69;33.90;101775.75;5092628;28;20577;-74
2022/08/13 06:16:51;;;;;;;11.82;4.93;;;;;;;27.51;33.93;101772.69;5092867;28;20079;-75
2022/08/13 06:19:25;;;;;;;6.63;4.03;;;;;;;27.16;34.57;101776.75;5092504;28;20055;-75
2022/08/13 06:22:01;;;;;;;5.93;4.60;;;;;;;26.84;35.48;101768.72;5089852;28;20536;-75
2022/08/13 06:24:29;;;;;;;10.23;3.90;;;;;;;26.43;35.86;101763.13;5092502;28;20044;-74
2022/08/13 06:27:00;;;;;;;8.35;4.65;;;;;;;26.25;36.88;101770.88;5092306;28;20044;-75
2022/08/13 06:29:29;;;;;;;4.75;4.32;;;;;;;25.79;37.54;101764.03;5092668;28;20052;-74
2022/08/13 06:32:06;;;;;;;9.02;4.43;;;;;;;25.43;38.12;101766.31;5091009;28;20094;-74
2022/08/13 06:34:53;;;;;;;8.88;4.25;;;;;;;25.13;39.21;101769.25;5092391;28;20053;-75
2022/08/13 06:37:22;;;;;;;9.55;4.30;;;;;;;25.06;39.23;101769.84;5093212;28;20045;-75
2022/08/13 06:39:50;;;;;;;8.63;4.57;;;;;;;24.98;39.91;101773.66;5096041;28;20044;-75
2022/08/13 06:42:29;;;;;;;6.95;4.45;;;;;;;24.78;39.92;101774.91;5096116;28;20484;-77
2022/08/13 06:44:58;;;;;;;6.07;3.53;;;;;;;24.83;40.76;101774.81;5095516;28;20063;-77
2022/08/13 06:47:29;;;;;;;17.52;4.35;;;;;;;24.70;40.61;101774.75;5095521;28;20484;-76
2022/08/13 06:50:10;;;;;;;7.68;4.10;;;;;;;24.68;41.65;101779.22;5095500;28;20053;-75
2022/08/13 06:52:38;;;;;;;4.90;4.45;;;;;;;24.60;40.81;101776.34;5094352;28;20405;-75
2022/08/13 06:55:07;;;;;;;6.32;4.30;;;;;;;24.59;41.59;101777.59;5094006;28;20106;-76
2022/08/13 06:57:56;;;;;;;4.57;4.18;;;;;;;24.57;43.19;101772.66;5095597;28;20106;-76
2022/08/13 07:00:38;;;;;;;4.63;4.15;;;;;;;24.57;42.18;101774.63;5095619;28;20132;-76
2022/08/13 07:03:06;;;;;;;3.67;3.47;;;;;;;24.64;43.36;101767.88;5094650;28;20112;-76
2022/08/13 07:05:41;;;;;;;11.32;3.58;;;;;;;24.74;41.57;101775.19;5093409;28;20484;-75
2022/08/13 07:08:11;;;;;;;15.52;3.60;;;;;;;24.82;42.25;101767.88;5095273;28;20072;-76
2022/08/13 07:10:43;;;;;;;5.75;3.53;;;;;;;24.97;42.26;101772.94;5095494;28;20040;-77
2022/08/13 07:13:10;;;;;;;7.90;3.60;;;;;;;24.96;42.31;101776.16;5095149;28;20118;-77
2022/08/13 07:15:57;;;;;;;5.00;3.40;;;;;;;25.09;41.59;101776.25;5095411;28;20068;-77
2022/08/13 07:18:26;;;;;;;5.90;3.03;;;;;;;25.16;41.53;101772.94;5093837;28;20044;-76
2022/08/13 07:20:54;;;;;;;5.70;3.10;;;;;;;25.30;41.61;101779.16;5094591;28;20128;-76
2022/08/13 07:23:21;;;;;;;9.48;3.30;;;;;;;25.36;41.52;101779.81;5094829;28;20040;-77
2022/08/13 07:26:09;;;;;;;5.90;3.03;;;;;;;25.30;41.38;101779.16;5093452;28;20051;-77
2022/08/13 07:28:36;;;;;;;10.65;2.78;;;;;;;25.35;40.26;101781.78;5093446;28;20513;-77
2022/08/13 07:31:19;;;;;;;7.88;2.60;;;;;;;25.43;39.39;101779.22;5093811;28;20501;-77
2022/08/13 07:33:51;;;;;;;3.58;3.08;;;;;;;25.54;39.91;101784.50;5076595;28;20057;-76
2022/08/13 07:36:24;;;;;;;4.80;2.70;;;;;;;25.62;39.39;101784.59;5094927;28;20131;-77
2022/08/13 07:38:52;;;;;;;5.68;2.50;;;;;;;25.74;39.72;101781.22;5076459;28;20143;-76
2022/08/13 07:41:20;;;;;;;8.43;2.50;;;;;;;25.87;39.17;101783.22;5093522;28;20467;-76
2022/08/13 07:43:47;;;;;;;3.10;2.15;;;;;;;26.15;38.37;101782.72;5076776;28;20049;-76
2022/08/13 07:46:35;;;;;;;7.40;2.30;;;;;;;26.36;38.78;101791.06;5073253;28;20072;-75
2022/08/13 07:49:09;;;;;;;7.22;2.55;;;;;;;26.56;37.75;101791.16;5071446;28;20099;-74
2022/08/13 07:51:37;;;;;;;11.38;2.60;;;;;;;26.51;37.31;101791.97;5073861;28;20045;-74
2022/08/13 07:54:06;;;;;;;7.18;2.30;;;;;;;26.63;37.30;101792.50;5074057;28;20135;-74
2022/08/13 07:56:35;;;;;;;6.95;1.98;;;;;;;26.90;37.89;101785.72;5074190;28;20492;-74
2022/08/13 07:59:08;;;;;;;11.80;2.40;;;;;;;27.07;37.08;101785.38;5074205;28;20076;-75
2022/08/13 08:01:46;;;;;;;3.60;2.25;;;;;;;27.24;36.73;101793.19;5073866;28;20519;-75
2022/08/13 08:04:35;;;;;;;6.28;2.20;;;;;;;27.29;35.09;101792.34;5072991;28;20583;-75
2022/08/13 08:07:07;;;;;;;7.90;2.00;;;;;;;27.35;35.94;101787.47;5074246;28;20124;-75
2022/08/13 08:09:36;;;;;;;4.88;2.17;;;;;;;27.50;35.02;101784.88;5072443;28;20045;-75
2022/08/13 08:14:54;;;;;;;3.60;2.10;;;;;;;27.78;34.08;101778.75;5073963;28;20055;-74
2022/08/13 08:17:26;;;;;;;5.47;2.17;;;;;;;28.02;34.17;101777.63;5073404;28;20045;-74
2022/08/13 08:20:21;;;;;;;4.13;2.13;;;;;;;28.11;34.59;101779.88;5073661;28;20064;-75
2022/08/13 08:23:05;;;;;;;5.03;2.20;;;;;;;28.36;33.51;101793.19;5074082;28;20099;-75
2022/08/13 08:25:37;;;;;;;3.60;2.20;;;;;;;28.50;32.69;101783.56;5073690;28;20577;-75
2022/08/13 08:28:25;;;;;;;7.80;2.13;;;;;;;28.54;33.56;101779.22;5073445;28;20087;-74
2022/08/13 08:31:07;;;;;;;7.07;2.50;;;;;;;28.66;32.34;101785.09;5073329;28;20044;-75
2022/08/13 08:33:56;;;;;;;6.15;2.00;;;;;;;28.83;33.08;101790.09;5057656;28;20056;-74
2022/08/13 08:36:23;;;;;;;5.60;2.13;;;;;;;28.91;33.03;101793.59;5073351;28;20044;-74
2022/08/13 08:44:55;;;;;;;2.80;2.20;;;;;;;29.46;32.63;101787.69;5073604;28;20041;-74
2022/08/13 08:47:30;;;;;;;2.60;2.40;;;;;;;29.64;32.09;101789.34;5072941;28;20151;-74
2022/08/13 08:50:22;;;;;;;2.35;2.22;;;;;;;29.88;30.83;101785.31;5073847;28;20085;-74
2022/08/13 08:56:04;;;;;;;2.67;1.80;;;;;;;30.07;29.98;101784.91;5071556;28;20561;-74
2022/08/13 08:58:35;;;;;;;3.22;2.10;;;;;;;30.22;30.38;101781.41;5073041;28;20072;-74
2022/08/13 09:01:05;;;;;;;6.18;2.47;;;;;;;30.17;30.35;101783.78;5072781;28;20041;-74
2022/08/13 09:03:39;;;;;;;4.82;1.92;;;;;;;30.19;29.48;101775.75;5071476;28;20494;-73
2022/08/13 09:06:25;;;;;;;4.60;1.80;;;;;;;30.48;30.79;101772.69;5071053;28;20088;-74
2022/08/13 09:09:13;;;;;;;3.42;2.33;;;;;;;30.54;29.22;101770.47;5072066;28;20553;-74
2022/08/13 09:11:46;;;;;;;2.20;2.10;;;;;;;30.38;29.28;101767.09;5071551;28;20060;-74
2022/08/13 09:14:26;;;;;;;2.22;2.10;;;;;;;30.64;29.98;101765.16;5073293;28;20568;-74
2022/08/13 09:16:55;;;;;;;4.43;1.90;;;;;;;30.65;29.61;101763.88;5072515;28;20502;-74
2022/08/13 09:19:23;;;;;;;9.05;2.17;;;;;;;30.71;29.35;101758.91;5072906;28;20477;-74
2022/08/13 09:22:14;;;;;;;3.95;2.28;;;;;;;30.87;28.88;101756.78;5072841;28;20142;-74
2022/08/13 09:24:45;;;;;;;4.20;1.85;;;;;;;31.03;29.10;101752.66;5072725;28;20049;-74
2022/08/13 09:27:18;;;;;;;2.33;1.90;;;;;;;31.18;27.47;101755.31;5072837;28;20049;-74
2022/08/13 09:29:48;;;;;;;2.15;1.85;;;;;;;31.12;27.15;101754.78;5072387;28;20437;-74
2022/08/13 09:32:29;;;;;;;2.78;2.00;;;;;;;31.27;27.71;101751.94;5072882;28;20041;-74
2022/08/13 09:34:59;;;;;;;9.10;2.13;;;;;;;31.37;27.49;101747.28;5072821;28;20080;-74
2022/08/13 09:37:27;;;;;;;2.67;2.42;;;;;;;31.65;27.35;101754.34;5072752;28;20497;-74
2022/08/13 09:40:16;;;;;;;4.32;2.10;;;;;;;31.42;26.87;101751.81;5072864;28;20041;-74
2022/08/13 09:43:02;;;;;;;9.60;2.30;;;;;;;31.58;26.21;101755.19;5072907;28;20525;-74
2022/08/13 09:45:39;;;;;;;11.88;2.22;;;;;;;31.70;27.74;101744.44;5070727;28;20094;-74
2022/08/13 09:48:12;;;;;;;3.33;1.90;;;;;;;31.85;26.14;101755.31;5071150;28;20048;-74
2022/08/13 09:51:02;;;;;;;2.42;1.92;;;;;;;32.02;26.47;101749.03;5070276;28;20141;-76
2022/08/13 09:53:32;;;;;;;15.27;2.30;;;;;;;32.21;26.13;101748.47;5092140;28;20045;-76
2022/08/13 09:56:00;;;;;;;3.22;2.15;;;;;;;32.12;25.27;101741.59;5090533;28;20044;-75
2022/08/13 09:58:29;;;;;;;4.55;2.08;;;;;;;32.13;25.95;101746.53;5090815;28;20040;-75
2022/08/13 10:01:07;;;;;;;4.82;2.35;;;;;;;32.07;26.13;101743.28;5092218;28;20127;-76
2022/08/13 10:03:48;;;;;;;3.30;1.90;;;;;;;32.22;26.31;101738.94;5090902;28;20084;-76
2022/08/13 10:06:23;;;;;;;3.00;2.00;;;;;;;32.42;25.12;101744.00;5090094;28;20090;-77
2022/08/13 10:08:50;;;;;;;2.17;2.00;;;;;;;32.58;25.68;101732.78;5089391;28;20064;-76
2022/08/13 10:11:16;;;;;;;1.90;1.70;;;;;;;32.77;24.81;101739.16;5091906;28;20036;-77
2022/08/13 10:14:03;;;;;;;3.45;1.83;;;;;;;32.63;24.50;101732.53;5089586;28;20140;-77
2022/08/13 10:16:29;;;;;;;1.80;1.70;;;;;;;32.77;24.26;101727.41;5092083;28;20098;-78
2022/08/13 10:18:56;;;;;;;1.60;1.60;;;;;;;32.73;23.71;101732.56;5092141;28;20041;-77
2022/08/13 10:21:23;;;;;;;2.45;1.75;;;;;;;32.66;23.64;101725.13;5089979;28;20051;-78
2022/08/13 10:23:50;;;;;;;3.60;1.80;;;;;;;32.77;23.86;101716.38;5073538;28;20044;-77
2022/08/13 10:26:18;;;;;;;1.52;1.52;;;;;;;33.01;23.41;101709.19;5092240;28;20072;-76
2022/08/13 10:28:47;;;;;;;1.83;1.70;;;;;;;32.95;23.32;101712.22;5089673;28;20040;-78
2022/08/13 10:31:16;;;;;;;2.85;1.67;;;;;;;32.99;23.23;101709.03;5089223;28;20508;-77
2022/08/13 10:34:03;;;;;;;1.80;1.70;;;;;;;33.06;22.86;101716.47;5091238;28;20045;-77
2022/08/13 10:36:32;;;;;;;3.13;1.70;;;;;;;33.25;23.27;101704.75;5089884;28;20057;-76
2022/08/13 10:39:06;;;;;;;1.80;1.70;;;;;;;33.43;22.82;101701.31;5091966;28;20123;-76
2022/08/13 10:41:44;;;;;;;2.35;1.65;;;;;;;33.48;23.01;101694.06;5092014;28;20048;-75
2022/08/13 10:44:29;;;;;;;;;;;;;;;33.66;24.12;101709.16;5091066;28;20063;-74
2022/08/13 10:46:59;;;;;;;4.10;1.83;;;;;;;33.23;23.53;101713.59;5091450;28;19931;-76
2022/08/13 10:49:28;;;;;;;1.73;1.67;;;;;;;33.26;22.91;101703.44;5090356;28;20528;-75
2022/08/13 10:51:59;;;;;;;5.30;2.00;;;;;;;33.38;23.03;101702.34;5090320;28;20048;-75
2022/08/13 10:54:33;;;;;;;5.82;1.98;;;;;;;33.32;23.78;101704.63;5090440;28;20579;-75
2022/08/13 10:57:07;;;;;;;6.55;1.73;;;;;;;33.28;23.26;101711.88;5091045;28;20043;-75
2022/08/13 10:59:40;;;;;;;6.60;1.70;;;;;;;33.28;24.44;101712.63;5091759;28;20036;-74
2022/08/13 11:02:07;;;;;;;3.17;1.70;;;;;;;33.32;23.21;101704.63;5091351;28;20099;-74
2022/08/13 11:04:37;;;;;;;;;;;;;;;33.18;25.20;101706.34;5091631;28;20537;-75
2022/08/13 11:07:17;;;;;;;3.42;1.50;;;;;;;33.11;24.15;101701.69;5091758;28;19963;-74
2022/08/13 11:09:43;;;;;;;1.75;1.63;;;;;;;33.23;23.69;101697.03;5090193;28;20479;-75
2022/08/13 11:12:16;;;;;;;2.38;1.70;;;;;;;33.39;23.02;101692.75;5091281;28;20048;-74
2022/08/13 11:14:49;;;;;;;1.85;1.40;;;;;;;33.41;22.89;101698.41;5091945;28;20585;-74
2022/08/13 11:17:17;;;;;;;2.85;1.63;;;;;;;33.43;24.27;101692.31;5091558;28;20044;-73
2022/08/13 11:20:06;;;;;;;2.78;1.73;;;;;;;33.46;23.72;101696.69;5064208;28;20178;-74
2022/08/13 11:22:34;;;;;;;3.00;1.80;;;;;;;33.38;22.99;101698.84;5066291;28;20651;-74
2022/08/13 11:25:03;;;;;;;2.17;1.90;;;;;;;33.30;22.69;101701.72;5070557;28;20045;-74
2022/08/13 11:27:50;;;;;;;4.50;1.58;;;;;;;33.26;22.25;101692.41;5067484;28;20585;-74
2022/08/13 11:30:19;;;;;;;2.90;1.50;;;;;;;33.16;22.86;101686.88;5053980;28;20052;-75
2022/08/13 11:33:01;;;;;;;2.55;1.63;;;;;;;33.30;22.53;101681.69;5053845;28;20049;-74
2022/08/13 11:35:35;;;;;;;1.58;1.50;;;;;;;33.29;22.62;101680.25;5053945;28;20055;-77
2022/08/13 11:38:12;;;;;;;1.58;1.48;;;;;;;33.45;22.79;101684.19;5052624;28;20161;-77
2022/08/13 11:40:55;;;;;;;1.70;1.60;;;;;;;33.25;22.38;101682.66;5085259;28;20038;-77
2022/08/13 11:43:25;;;;;;;5.75;1.75;;;;;;;33.11;22.89;101685.13;5054341;28;20069;-76
2022/08/13 11:46:11;;;;;;;1.38;1.38;;;;;;;33.09;23.07;101668.44;5052322;28;20049;-77
2022/08/13 11:48:40;;;;;;;3.33;1.88;;;;;;;33.22;22.24;101667.28;5053890;28;20038;-76
2022/08/13 11:51:07;;;;;;;1.80;1.60;;;;;;;33.09;22.62;101671.91;5052054;28;20053;-78
2022/08/13 11:53:34;;;;;;;1.90;1.80;;;;;;;33.09;22.93;101676.72;5069085;28;20145;-77
2022/08/13 11:56:20;;;;;;;4.72;1.80;;;;;;;33.14;22.60;101670.91;5051929;28;20073;-77
2022/08/13 11:58:49;;;;;;;3.92;1.80;;;;;;;33.20;23.20;101661.59;5052526;28;20049;-77
2022/08/13 12:01:22;;;;;;;1.80;1.70;;;;;;;33.33;23.40;101667.47;5053683;28;20100;-76
2022/08/13 12:04:03;;;;;;;3.50;1.70;;;;;;;33.28;22.59;101653.97;5053329;28;20112;-76
2022/08/13 12:06:49;;;;;;;1.83;1.73;;;;;;;33.16;21.85;101664.81;5052297;28;20069;-77
2022/08/13 12:09:17;;;;;;;3.05;1.60;;;;;;;32.98;22.18;101669.69;5053460;28;20050;-77
2022/08/13 12:12:04;;;;;;;1.58;1.48;;;;;;;33.10;21.80;101664.38;5051917;28;20057;-76
2022/08/13 12:14:38;;;;;;;3.67;1.67;;;;;;;33.05;21.68;101665.38;5053570;28;20383;-76
2022/08/13 12:17:04;;;;;;;2.85;1.63;;;;;;;33.00;22.07;101660.84;5054532;28;20052;-76
2022/08/13 12:19:31;;;;;;;6.00;1.58;;;;;;;33.08;21.99;101662.19;5072371;28;20571;-75
2022/08/13 12:21:59;;;;;;;1.80;1.70;;;;;;;33.09;22.12;101660.16;5073705;28;20037;-74